Havana, Texas
Current Conditions -  °F | °C
As of 9:55 PM on Thursday 18 Dec 2014 (Local Time) from KMFE Reporting Station
Light Rain Light Rain  
Wind Chill: 63°   Ceiling: 300
Heat Index: 63°   Visibility: 5mi
Dew Point: 62°   Wind: 3mph
Humidity: 97%   Direction: 270°W
Pressure: 30.01"   Gusts: NA
Location:  26.2167°N, 98.325°W
Report Text: KMFE 190355Z 27003KT 5SM -RA BR BKN003 OVC020 17/17 A3001 RMK AO2 P0000 T01720167
Loading
Personal Weather Stations






























Interactive Weather Map New forecast layout! Learn more

10-Day Weather Forecast

Advertisements
Track Severe Weather on mobile